createdAt,value
2023-09-24T00:01:07.772Z,14.10
2023-09-24T00:03:37.682Z,14.10
2023-09-24T00:06:11.949Z,14.10
2023-09-24T00:08:39.075Z,14.00
2023-09-24T00:11:08.778Z,14.00
2023-09-24T00:13:39.573Z,14.00
2023-09-24T00:16:11.243Z,13.90
2023-09-24T00:18:39.137Z,13.90
2023-09-24T00:21:07.814Z,13.80
2023-09-24T00:23:37.352Z,13.80
2023-09-24T00:26:04.390Z,13.80
2023-09-24T00:28:31.686Z,13.80
2023-09-24T00:31:02.293Z,13.80
2023-09-24T00:33:30.874Z,13.80
2023-09-24T00:36:03.964Z,13.80
2023-09-24T00:38:30.815Z,13.80
2023-09-24T00:40:57.633Z,13.80
2023-09-24T00:43:36.286Z,13.70
2023-09-24T00:46:09.007Z,13.80
2023-09-24T00:48:36.187Z,13.70
2023-09-24T00:51:24.141Z,13.70
2023-09-24T00:53:57.281Z,13.70
2023-09-24T00:56:27.325Z,13.70
2023-09-24T00:58:55.612Z,13.70
2023-09-24T01:01:25.668Z,13.60
2023-09-24T01:03:54.443Z,13.60
2023-09-24T01:06:25.125Z,13.60
2023-09-24T01:08:52.166Z,13.50
2023-09-24T01:11:21.726Z,13.50
2023-09-24T01:13:52.204Z,13.50
2023-09-24T01:16:20.330Z,13.40
2023-09-24T01:18:47.207Z,13.40
2023-09-24T01:21:19.071Z,13.40
2023-09-24T01:23:49.955Z,13.40
2023-09-24T01:26:24.560Z,13.40
2023-09-24T01:28:52.685Z,13.40
2023-09-24T01:31:20.344Z,13.40
2023-09-24T01:33:49.147Z,13.30
2023-09-24T01:36:16.818Z,13.30
2023-09-24T01:38:44.998Z,13.30
2023-09-24T01:41:12.548Z,13.20
2023-09-24T01:43:49.152Z,13.20
2023-09-24T01:46:16.457Z,13.20
2023-09-24T01:48:48.624Z,13.20
2023-09-24T01:51:15.535Z,13.20
2023-09-24T01:53:43.776Z,13.20
2023-09-24T01:56:13.278Z,13.20
2023-09-24T01:58:40.652Z,13.20
2023-09-24T02:01:10.972Z,13.10
2023-09-24T02:03:38.344Z,13.10
2023-09-24T02:06:08.632Z,13.10
2023-09-24T02:08:36.115Z,13.10
2023-09-24T02:11:03.532Z,13.10
2023-09-24T02:13:31.118Z,13.10
2023-09-24T02:15:59.560Z,13.10
2023-09-24T02:18:28.629Z,13.10
2023-09-24T02:20:56.218Z,13.00
2023-09-24T02:23:24.321Z,13.00
2023-09-24T02:25:53.820Z,13.00
2023-09-24T02:28:20.902Z,12.90
2023-09-24T02:30:51.287Z,12.90
2023-09-24T02:33:21.373Z,12.90
2023-09-24T02:35:53.367Z,12.90
2023-09-24T02:38:21.853Z,12.80
2023-09-24T02:40:56.975Z,12.80
2023-09-24T02:43:30.423Z,12.80
2023-09-24T02:45:59.129Z,12.80
2023-09-24T02:48:29.171Z,12.70
2023-09-24T02:50:57.945Z,12.70
2023-09-24T02:53:27.985Z,12.70
2023-09-24T02:55:58.708Z,12.70
2023-09-24T02:58:28.291Z,12.70
2023-09-24T03:00:55.001Z,12.60
2023-09-24T03:03:22.411Z,12.60
2023-09-24T03:05:56.713Z,12.60
2023-09-24T03:08:27.926Z,12.60
2023-09-24T03:10:58.099Z,12.60
2023-09-24T03:13:32.475Z,12.60
2023-09-24T03:16:05.437Z,12.60
2023-09-24T03:18:35.441Z,12.60
2023-09-24T03:21:09.354Z,12.60
2023-09-24T03:23:38.104Z,12.60
2023-09-24T03:26:04.933Z,12.70
2023-09-24T03:28:31.837Z,12.70
2023-09-24T03:30:58.559Z,12.70
2023-09-24T03:33:26.721Z,12.70
2023-09-24T03:35:53.534Z,12.70
2023-09-24T03:38:20.352Z,12.70
2023-09-24T03:40:47.030Z,12.70
2023-09-24T03:43:13.753Z,12.70
2023-09-24T03:45:40.516Z,12.70
2023-09-24T03:48:08.011Z,12.70
2023-09-24T03:50:35.736Z,12.60
2023-09-24T03:53:02.526Z,12.60
2023-09-24T03:55:29.332Z,12.60
2023-09-24T03:57:58.733Z,12.60
2023-09-24T04:00:27.009Z,12.60
2023-09-24T04:02:54.048Z,12.60
2023-09-24T04:05:24.451Z,12.50
2023-09-24T04:07:53.889Z,12.60
2023-09-24T04:10:22.687Z,12.60
2023-09-24T04:12:51.710Z,12.60
2023-09-24T04:15:21.938Z,12.60
2023-09-24T04:17:50.697Z,12.60
2023-09-24T04:20:21.499Z,12.60
2023-09-24T04:22:49.094Z,12.60
2023-09-24T04:25:18.864Z,12.60
2023-09-24T04:27:45.979Z,12.60
2023-09-24T04:30:20.241Z,12.60
2023-09-24T04:32:49.865Z,12.50
2023-09-24T04:35:20.939Z,12.50
2023-09-24T04:37:52.204Z,12.50
2023-09-24T04:40:19.665Z,12.50
2023-09-24T04:42:47.552Z,12.50
2023-09-24T04:45:15.845Z,12.50
2023-09-24T04:47:43.375Z,12.50
2023-09-24T04:50:14.420Z,12.50
2023-09-24T04:52:45.744Z,12.50
2023-09-24T04:55:12.637Z,12.50
2023-09-24T04:57:39.421Z,12.40
2023-09-24T05:00:07.119Z,12.40
2023-09-24T05:02:33.951Z,12.40
2023-09-24T05:05:00.783Z,12.40
2023-09-24T05:07:27.622Z,12.40
2023-09-24T05:09:54.428Z,12.30
2023-09-24T05:12:21.165Z,12.30
2023-09-24T05:14:48.007Z,12.30
2023-09-24T05:17:14.767Z,12.40
2023-09-24T05:19:41.516Z,12.40
2023-09-24T05:22:09.019Z,12.40
2023-09-24T05:24:36.013Z,12.40
2023-09-24T05:27:02.843Z,12.50
2023-09-24T05:29:29.650Z,12.50
2023-09-24T05:31:57.014Z,12.50
2023-09-24T05:34:24.322Z,12.50
2023-09-24T05:36:51.357Z,12.50
2023-09-24T05:39:18.126Z,12.50
2023-09-24T05:41:45.381Z,12.50
2023-09-24T05:44:13.239Z,12.60
2023-09-24T05:46:40.154Z,12.70
2023-09-24T05:49:06.859Z,12.80
2023-09-24T05:51:33.546Z,12.80
2023-09-24T05:54:00.343Z,12.90
2023-09-24T05:56:27.594Z,13.00
2023-09-24T05:58:54.703Z,13.00
2023-09-24T06:01:21.454Z,13.00
2023-09-24T06:03:48.782Z,13.00
2023-09-24T06:06:15.900Z,13.10
2023-09-24T06:08:42.641Z,13.10
2023-09-24T06:11:09.676Z,13.10
2023-09-24T06:13:36.875Z,13.20
2023-09-24T06:16:04.276Z,13.30
2023-09-24T06:18:31.248Z,13.40
2023-09-24T06:20:59.663Z,13.50
2023-09-24T06:23:26.602Z,13.70
2023-09-24T06:26:00.327Z,13.70
2023-09-24T06:28:27.842Z,13.80
2023-09-24T06:31:02.286Z,13.80
2023-09-24T06:33:29.559Z,13.90
2023-09-24T06:35:57.216Z,14.10
2023-09-24T06:38:24.331Z,14.20
2023-09-24T06:41:01.151Z,14.30
2023-09-24T06:43:28.429Z,14.40
2023-09-24T06:45:56.232Z,14.50
2023-09-24T06:48:24.007Z,14.70
2023-09-24T06:50:51.895Z,14.80
2023-09-24T06:53:19.392Z,14.90
2023-09-24T06:55:46.995Z,15.00
2023-09-24T06:58:14.626Z,15.00
2023-09-24T07:00:41.492Z,15.20
2023-09-24T07:03:08.403Z,15.20
2023-09-24T07:05:37.836Z,15.30
2023-09-24T07:08:05.295Z,15.40
2023-09-24T07:10:32.214Z,15.50
2023-09-24T07:12:59.043Z,15.50
2023-09-24T07:15:25.849Z,15.60
2023-09-24T07:17:52.723Z,15.70
2023-09-24T07:20:21.488Z,15.70
2023-09-24T07:22:48.591Z,15.80
2023-09-24T07:25:15.589Z,15.80
2023-09-24T07:27:44.920Z,16.00
2023-09-24T07:30:12.139Z,16.00
2023-09-24T07:32:39.592Z,16.10
2023-09-24T07:35:09.164Z,16.20
2023-09-24T07:37:36.067Z,16.20
2023-09-24T07:40:03.386Z,16.30
2023-09-24T07:42:30.963Z,16.30
2023-09-24T07:44:57.740Z,16.40
2023-09-24T07:47:24.549Z,16.50
2023-09-24T07:49:51.626Z,16.50
2023-09-24T07:52:18.379Z,16.60
2023-09-24T07:54:47.255Z,16.70
2023-09-24T07:57:16.003Z,16.70
2023-09-24T07:59:43.044Z,16.80
2023-09-24T08:02:09.890Z,16.90
2023-09-24T08:04:36.656Z,17.00
2023-09-24T08:07:03.414Z,17.00
2023-09-24T08:09:31.303Z,17.10
2023-09-24T08:11:58.260Z,17.20
2023-09-24T08:14:26.238Z,17.30
2023-09-24T08:16:53.354Z,17.40
2023-09-24T08:19:20.246Z,17.40
2023-09-24T08:21:47.003Z,17.50
2023-09-24T08:24:13.710Z,17.60
2023-09-24T08:26:40.604Z,17.70
2023-09-24T08:29:08.118Z,17.80
2023-09-24T08:31:36.060Z,17.80
2023-09-24T08:34:03.938Z,17.80
2023-09-24T08:36:31.101Z,17.90
2023-09-24T08:38:58.229Z,17.90
2023-09-24T08:41:25.531Z,18.00
2023-09-24T08:43:56.248Z,18.10
2023-09-24T08:46:23.997Z,18.10
2023-09-24T08:48:52.498Z,18.20
2023-09-24T08:51:20.345Z,18.30
2023-09-24T08:53:47.150Z,18.40
2023-09-24T08:56:16.271Z,18.40
2023-09-24T08:58:43.976Z,18.40
2023-09-24T09:01:12.239Z,18.50
2023-09-24T09:03:40.195Z,18.50
2023-09-24T09:06:07.192Z,18.50
2023-09-24T09:08:55.542Z,18.60
2023-09-24T09:11:36.837Z,18.60
2023-09-24T09:14:03.784Z,18.70
2023-09-24T09:16:30.543Z,18.70
2023-09-24T09:19:04.441Z,18.80
2023-09-24T09:21:33.952Z,18.90
2023-09-24T09:24:00.701Z,18.90
2023-09-24T09:26:35.026Z,18.90
2023-09-24T09:29:06.004Z,18.90
2023-09-24T09:31:52.641Z,19.00
2023-09-24T09:34:20.668Z,19.00
2023-09-24T09:36:48.896Z,19.00
2023-09-24T09:39:16.582Z,19.10
2023-09-24T09:41:45.908Z,19.10
2023-09-24T09:44:17.468Z,19.30
2023-09-24T09:46:48.642Z,19.40
2023-09-24T09:49:21.933Z,19.60
2023-09-24T09:51:50.209Z,19.90
2023-09-24T09:54:23.319Z,20.10
2023-09-24T09:56:53.554Z,20.50
2023-09-24T09:59:22.089Z,20.80
2023-09-24T10:01:50.115Z,21.20
2023-09-24T10:04:18.387Z,21.60
2023-09-24T10:06:46.023Z,21.90
2023-09-24T10:09:40.817Z,22.30
2023-09-24T10:12:08.984Z,22.80
2023-09-24T10:14:44.137Z,22.90
2023-09-24T10:17:17.525Z,23.10
2023-09-24T10:19:52.601Z,23.30
2023-09-24T10:22:29.601Z,23.40
2023-09-24T10:25:00.506Z,23.70
2023-09-24T10:27:34.411Z,23.90
2023-09-24T10:30:03.004Z,24.00
2023-09-24T10:32:30.779Z,24.00
2023-09-24T10:35:03.602Z,24.10
2023-09-24T10:37:39.832Z,24.20
2023-09-24T10:40:11.496Z,24.20
2023-09-24T10:42:43.680Z,24.20
2023-09-24T10:45:12.073Z,24.20
2023-09-24T10:47:43.553Z,24.00
2023-09-24T10:50:10.910Z,24.00
2023-09-24T10:52:47.743Z,23.90
2023-09-24T10:55:15.755Z,23.80
2023-09-24T10:57:54.176Z,23.70
2023-09-24T11:00:22.913Z,23.70
2023-09-24T11:03:07.043Z,23.70
2023-09-24T11:05:47.344Z,23.70
2023-09-24T11:08:16.365Z,23.90
2023-09-24T11:10:48.816Z,24.20
2023-09-24T11:13:15.969Z,24.50
2023-09-24T11:15:43.492Z,24.80
2023-09-24T11:18:13.819Z,25.10
2023-09-24T11:20:49.417Z,25.60
2023-09-24T11:23:16.274Z,26.20
2023-09-24T11:25:48.275Z,26.70
2023-09-24T11:28:15.418Z,27.20
2023-09-24T11:30:43.657Z,27.60
2023-09-24T11:33:25.050Z,28.10
2023-09-24T11:35:54.374Z,28.40
2023-09-24T11:38:37.334Z,28.50
2023-09-24T11:41:07.705Z,28.60
2023-09-24T11:43:35.560Z,28.90
2023-09-24T11:46:02.421Z,29.10
2023-09-24T11:48:31.215Z,29.20
2023-09-24T11:51:01.942Z,29.40
2023-09-24T11:53:28.993Z,29.20
2023-09-24T11:56:00.144Z,29.10
2023-09-24T11:58:28.406Z,29.00
2023-09-24T12:00:57.169Z,28.80
2023-09-24T12:03:24.926Z,28.60
2023-09-24T12:05:52.835Z,28.40
2023-09-24T12:08:19.780Z,28.10
2023-09-24T12:10:52.227Z,27.80
2023-09-24T12:13:19.729Z,27.50
2023-09-24T12:15:47.036Z,27.20
2023-09-24T12:18:14.331Z,27.00
2023-09-24T12:20:42.658Z,26.80
2023-09-24T12:23:10.980Z,26.60
2023-09-24T12:25:40.168Z,26.50
2023-09-24T12:28:08.702Z,26.50
2023-09-24T12:30:37.121Z,26.40
2023-09-24T12:33:04.583Z,26.50
2023-09-24T12:35:35.002Z,26.60
2023-09-24T12:38:02.842Z,26.70
2023-09-24T12:40:31.468Z,26.90
2023-09-24T12:42:58.408Z,27.20
2023-09-24T12:45:28.421Z,27.60
2023-09-24T12:47:55.791Z,28.00
2023-09-24T12:50:23.139Z,28.50
2023-09-24T12:52:50.001Z,28.90
2023-09-24T12:55:17.979Z,29.10
2023-09-24T12:57:47.128Z,29.00
2023-09-24T13:00:16.402Z,28.90
2023-09-24T13:02:47.358Z,28.70
2023-09-24T13:05:17.051Z,28.40
2023-09-24T13:07:46.279Z,28.20
2023-09-24T13:10:16.296Z,28.00
2023-09-24T13:12:44.974Z,27.90
2023-09-24T13:15:12.463Z,27.80
2023-09-24T13:17:39.961Z,28.00
2023-09-24T13:20:07.476Z,28.30
2023-09-24T13:22:34.399Z,28.50
2023-09-24T13:25:01.512Z,28.80
2023-09-24T13:27:28.619Z,28.90
2023-09-24T13:29:55.611Z,29.00
2023-09-24T13:32:23.055Z,29.00
2023-09-24T13:34:50.204Z,29.20
2023-09-24T13:37:17.437Z,29.10
2023-09-24T13:39:44.757Z,29.20
2023-09-24T13:42:11.680Z,29.10
2023-09-24T13:44:38.680Z,28.90
2023-09-24T13:47:05.509Z,28.70
2023-09-24T13:49:36.902Z,28.40
2023-09-24T13:52:04.579Z,28.10
2023-09-24T13:54:33.156Z,27.80
2023-09-24T13:57:00.580Z,27.60
2023-09-24T13:59:27.399Z,27.30
2023-09-24T14:01:54.190Z,27.10
2023-09-24T14:04:21.150Z,26.80
2023-09-24T14:06:48.810Z,26.70
2023-09-24T14:09:34.038Z,26.40
2023-09-24T14:12:22.605Z,26.20
2023-09-24T14:14:50.773Z,26.10
2023-09-24T14:17:17.591Z,25.90
2023-09-24T14:19:44.315Z,25.80
2023-09-24T14:22:11.152Z,25.60
2023-09-24T14:24:39.340Z,25.60
2023-09-24T14:27:08.582Z,25.50
2023-09-24T14:29:35.390Z,25.40
2023-09-24T14:32:02.283Z,25.40
2023-09-24T14:34:32.097Z,25.40
2023-09-24T14:36:59.303Z,25.30
2023-09-24T14:39:26.238Z,25.30
2023-09-24T14:41:53.069Z,25.30
2023-09-24T14:44:19.936Z,25.30
2023-09-24T14:46:46.785Z,25.60
2023-09-24T14:49:14.173Z,25.90
2023-09-24T14:51:41.279Z,26.10
2023-09-24T14:54:09.189Z,26.20
2023-09-24T14:56:35.969Z,26.30
2023-09-24T14:59:03.191Z,26.20
2023-09-24T15:01:29.962Z,26.30
2023-09-24T15:03:56.871Z,26.50
2023-09-24T15:06:24.215Z,26.80
2023-09-24T15:08:51.036Z,27.10
2023-09-24T15:11:17.905Z,27.40
2023-09-24T15:13:44.626Z,27.60
2023-09-24T15:16:11.408Z,28.00
2023-09-24T15:18:40.381Z,28.30
2023-09-24T15:21:14.928Z,28.50
2023-09-24T15:23:41.890Z,28.80
2023-09-24T15:26:20.752Z,29.00
2023-09-24T15:28:50.710Z,29.00
2023-09-24T15:31:29.977Z,29.20
2023-09-24T15:34:10.066Z,29.10
2023-09-24T15:39:59.801Z,29.50
2023-09-24T15:42:41.668Z,29.50
2023-09-24T15:45:50.914Z,29.60
2023-09-24T15:48:50.876Z,29.60
2023-09-24T15:51:29.831Z,29.60
2023-09-24T15:54:20.780Z,29.70
2023-09-24T15:57:14.623Z,29.60
2023-09-24T16:00:03.427Z,29.60
2023-09-24T16:03:07.938Z,29.60
2023-09-24T16:05:42.280Z,29.50
2023-09-24T16:08:44.801Z,29.50
2023-09-24T16:11:33.056Z,29.30
2023-09-24T16:17:30.949Z,29.00
2023-09-24T16:20:12.933Z,28.90
2023-09-24T16:22:40.479Z,28.80
2023-09-24T16:25:07.827Z,28.60
2023-09-24T16:27:37.768Z,28.40
2023-09-24T16:30:04.884Z,28.20
2023-09-24T16:32:31.800Z,28.00
2023-09-24T16:34:58.675Z,27.90
2023-09-24T16:37:26.125Z,27.70
2023-09-24T16:39:55.527Z,27.50
2023-09-24T16:42:22.616Z,27.30
2023-09-24T16:44:49.537Z,27.10
2023-09-24T16:47:16.499Z,26.80
2023-09-24T16:49:46.124Z,26.60
2023-09-24T16:52:12.981Z,26.20
2023-09-24T16:54:41.245Z,26.00
2023-09-24T16:57:09.095Z,25.70
2023-09-24T16:59:40.873Z,25.50
2023-09-24T17:02:13.140Z,25.20
2023-09-24T17:05:09.822Z,25.10
2023-09-24T17:10:52.518Z,24.50
2023-09-24T17:13:19.533Z,24.10
2023-09-24T17:15:49.954Z,23.90
2023-09-24T17:18:17.031Z,23.70
2023-09-24T17:20:58.867Z,23.50
2023-09-24T17:23:27.652Z,23.20
2023-09-24T17:25:57.520Z,23.00
2023-09-24T17:29:03.158Z,22.90
2023-09-24T17:31:38.866Z,22.60
2023-09-24T17:38:11.267Z,22.20
2023-09-24T17:41:01.306Z,22.00
2023-09-24T17:47:40.180Z,21.80
2023-09-24T17:50:27.427Z,21.60
2023-09-24T17:52:54.324Z,21.40
2023-09-24T17:55:40.720Z,21.40
2023-09-24T18:01:45.501Z,21.00
2023-09-24T18:04:24.830Z,20.70
2023-09-24T18:07:12.396Z,20.40
2023-09-24T18:13:22.351Z,20.10
2023-09-24T18:24:14.135Z,19.70
2023-09-24T18:26:48.814Z,19.40
2023-09-24T18:29:17.770Z,19.20
2023-09-24T18:31:48.362Z,19.00
2023-09-24T18:34:22.928Z,18.80
2023-09-24T18:36:50.967Z,18.70
2023-09-24T18:39:28.583Z,18.60
2023-09-24T18:41:58.108Z,18.40
2023-09-24T18:44:35.046Z,18.30
2023-09-24T18:47:13.968Z,18.10
2023-09-24T18:50:00.873Z,18.00
2023-09-24T18:55:58.388Z,17.70
2023-09-24T18:58:50.961Z,17.60
2023-09-24T19:02:24.246Z,17.50
2023-09-24T19:04:54.034Z,17.40
2023-09-24T19:07:49.104Z,17.20
2023-09-24T19:10:34.823Z,17.20
2023-09-24T19:13:10.873Z,17.20
2023-09-24T19:15:45.248Z,17.10
2023-09-24T19:18:15.200Z,17.10
2023-09-24T19:20:55.530Z,17.00
2023-09-24T19:23:57.078Z,16.90
2023-09-24T19:26:26.970Z,16.80
2023-09-24T19:29:06.471Z,16.70
2023-09-24T19:31:37.126Z,16.70
2023-09-24T19:34:09.453Z,16.70
2023-09-24T19:36:41.457Z,16.60
2023-09-24T19:39:12.500Z,16.60
2023-09-24T19:41:46.884Z,16.60
2023-09-24T19:44:32.090Z,16.50
2023-09-24T19:46:59.233Z,16.50
2023-09-24T19:49:33.945Z,16.50
2023-09-24T19:52:09.536Z,16.50
2023-09-24T19:54:36.885Z,16.40
2023-09-24T19:57:17.278Z,16.40
2023-09-24T20:02:55.461Z,16.30
2023-09-24T20:05:44.073Z,16.10
2023-09-24T20:08:14.243Z,16.10
2023-09-24T20:10:44.627Z,16.00
2023-09-24T20:13:11.671Z,15.90
2023-09-24T20:15:38.722Z,15.90
2023-09-24T20:18:07.641Z,15.80
2023-09-24T20:20:42.171Z,15.80
2023-09-24T20:23:09.725Z,15.70
2023-09-24T20:25:45.366Z,15.70
2023-09-24T20:28:12.370Z,15.70
2023-09-24T20:30:39.571Z,15.60
2023-09-24T20:33:21.315Z,15.60
2023-09-24T20:35:55.481Z,15.50
2023-09-24T20:38:29.034Z,15.50
2023-09-24T20:41:08.423Z,15.50
2023-09-24T20:43:37.553Z,15.50
2023-09-24T20:46:08.550Z,15.50
2023-09-24T20:48:35.788Z,15.70
2023-09-24T20:54:17.788Z,15.90
2023-09-24T20:56:53.968Z,15.90
2023-09-24T20:59:31.423Z,16.00
2023-09-24T21:05:43.593Z,16.10
2023-09-24T21:11:56.460Z,16.20
2023-09-24T21:14:32.860Z,16.20
2023-09-24T21:27:47.956Z,16.10
2023-09-24T21:30:14.852Z,16.00
2023-09-24T21:32:41.805Z,16.00
2023-09-24T21:35:08.767Z,16.00
2023-09-24T21:37:35.585Z,16.00
2023-09-24T21:40:04.119Z,16.10
2023-09-24T21:42:31.097Z,16.10
2023-09-24T21:45:01.481Z,16.10
2023-09-24T21:47:30.402Z,16.00
2023-09-24T21:49:57.261Z,16.00
2023-09-24T21:52:24.123Z,16.00
2023-09-24T21:54:54.544Z,16.10
2023-09-24T21:57:22.066Z,16.10
2023-09-24T21:59:48.886Z,16.20
2023-09-24T22:02:16.118Z,16.20
2023-09-24T22:04:43.219Z,16.20
2023-09-24T22:07:10.433Z,16.20
2023-09-24T22:09:37.548Z,16.20
2023-09-24T22:12:04.577Z,16.20
2023-09-24T22:14:31.365Z,16.10
2023-09-24T22:16:58.349Z,16.10
2023-09-24T22:19:25.162Z,16.10
2023-09-24T22:21:51.979Z,16.20
2023-09-24T22:24:19.036Z,16.10
2023-09-24T22:26:45.796Z,16.00
2023-09-24T22:29:12.598Z,15.90
2023-09-24T22:31:39.354Z,15.80
2023-09-24T22:34:07.159Z,15.70
2023-09-24T22:36:34.453Z,15.60
2023-09-24T22:39:01.714Z,15.50
2023-09-24T22:41:28.705Z,15.40
2023-09-24T22:43:55.510Z,15.30
2023-09-24T22:46:22.300Z,15.20
2023-09-24T22:48:49.560Z,15.10
2023-09-24T22:51:16.624Z,15.00
2023-09-24T22:53:44.098Z,14.80
2023-09-24T22:56:11.230Z,14.70
2023-09-24T22:58:38.720Z,14.60
2023-09-24T23:01:06.471Z,14.50
2023-09-24T23:03:33.886Z,14.50
2023-09-24T23:06:00.778Z,14.40
2023-09-24T23:08:27.886Z,14.30
2023-09-24T23:10:54.794Z,14.20
2023-09-24T23:13:21.624Z,14.10
2023-09-24T23:15:48.654Z,14.10
2023-09-24T23:18:15.580Z,14.00
2023-09-24T23:20:49.173Z,13.90
2023-09-24T23:23:19.896Z,13.80
2023-09-24T23:25:47.287Z,13.70
2023-09-24T23:28:14.487Z,13.60
2023-09-24T23:30:44.691Z,13.60
2023-09-24T23:33:12.970Z,13.60
2023-09-24T23:35:41.567Z,13.50
2023-09-24T23:38:09.807Z,13.50
2023-09-24T23:40:36.685Z,13.40
2023-09-24T23:43:03.865Z,13.40
2023-09-24T23:45:36.736Z,13.30
2023-09-24T23:48:08.879Z,13.30
2023-09-24T23:50:39.613Z,13.20
2023-09-24T23:53:07.378Z,13.30
2023-09-24T23:55:35.432Z,13.20
2023-09-24T23:58:02.525Z,13.20
